sensor_id;sensor_type;location;lat;lon;timestamp;P1;durP1;ratioP1;P2;durP2;ratioP2
21550;SDS011;10936;49.836;7.078;2023-02-15T06:02:26;5.90;;;4.07;;
21550;SDS011;10936;49.836;7.078;2023-02-15T06:04:51;5.13;;;4.20;;
21550;SDS011;10936;49.836;7.078;2023-02-15T06:07:17;5.47;;;3.90;;
21550;SDS011;10936;49.836;7.078;2023-02-15T06:09:43;5.30;;;4.37;;
21550;SDS011;10936;49.836;7.078;2023-02-15T06:12:08;5.60;;;4.10;;
21550;SDS011;10936;49.836;7.078;2023-02-15T06:14:34;5.33;;;3.90;;
21550;SDS011;10936;49.836;7.078;2023-02-15T06:16:59;5.03;;;4.03;;
21550;SDS011;10936;49.836;7.078;2023-02-15T06:19:25;5.93;;;3.77;;
21550;SDS011;10936;49.836;7.078;2023-02-15T06:21:51;6.40;;;4.13;;
21550;SDS011;10936;49.836;7.078;2023-02-15T06:24:16;11.43;;;5.70;;
21550;SDS011;10936;49.836;7.078;2023-02-15T06:26:42;10.63;;;4.70;;
21550;SDS011;10936;49.836;7.078;2023-02-15T06:29:07;10.20;;;5.10;;
21550;SDS011;10936;49.836;7.078;2023-02-15T06:31:33;10.53;;;5.10;;
21550;SDS011;10936;49.836;7.078;2023-02-15T06:33:59;9.40;;;4.97;;
21550;SDS011;10936;49.836;7.078;2023-02-15T06:36:28;10.37;;;5.70;;
21550;SDS011;10936;49.836;7.078;2023-02-15T06:38:54;9.97;;;5.53;;
21550;SDS011;10936;49.836;7.078;2023-02-15T06:41:20;13.03;;;5.83;;
21550;SDS011;10936;49.836;7.078;2023-02-15T06:43:45;8.30;;;5.30;;
21550;SDS011;10936;49.836;7.078;2023-02-15T06:46:11;12.30;;;5.27;;
21550;SDS011;10936;49.836;7.078;2023-02-15T06:48:37;10.50;;;4.97;;
21550;SDS011;10936;49.836;7.078;2023-02-15T06:51:02;9.93;;;5.47;;
21550;SDS011;10936;49.836;7.078;2023-02-15T06:53:28;7.80;;;4.80;;
21550;SDS011;10936;49.836;7.078;2023-02-15T06:55:59;7.00;;;4.63;;
21550;SDS011;10936;49.836;7.078;2023-02-15T06:58:31;7.87;;;4.83;;
21550;SDS011;10936;49.836;7.078;2023-02-15T07:00:57;7.57;;;4.23;;
21550;SDS011;10936;49.836;7.078;2023-02-15T07:03:23;9.87;;;4.63;;
21550;SDS011;10936;49.836;7.078;2023-02-15T07:05:49;9.23;;;4.67;;
21550;SDS011;10936;49.836;7.078;2023-02-15T07:08:22;9.40;;;4.70;;
21550;SDS011;10936;49.836;7.078;2023-02-15T07:10:49;9.93;;;5.03;;
21550;SDS011;10936;49.836;7.078;2023-02-15T07:13:15;8.97;;;4.73;;
21550;SDS011;10936;49.836;7.078;2023-02-15T07:15:41;8.37;;;4.53;;
21550;SDS011;10936;49.836;7.078;2023-02-15T07:18:07;7.93;;;4.33;;
21550;SDS011;10936;49.836;7.078;2023-02-15T07:20:32;7.23;;;4.83;;
21550;SDS011;10936;49.836;7.078;2023-02-15T07:23:01;8.40;;;4.83;;
21550;SDS011;10936;49.836;7.078;2023-02-15T07:25:27;7.87;;;4.67;;
21550;SDS011;10936;49.836;7.078;2023-02-15T07:27:59;8.50;;;5.27;;
21550;SDS011;10936;49.836;7.078;2023-02-15T07:30:26;9.10;;;4.77;;
21550;SDS011;10936;49.836;7.078;2023-02-15T07:32:55;9.20;;;5.20;;
21550;SDS011;10936;49.836;7.078;2023-02-15T07:35:49;11.07;;;4.73;;
21550;SDS011;10936;49.836;7.078;2023-02-15T07:38:16;8.37;;;4.97;;
21550;SDS011;10936;49.836;7.078;2023-02-15T07:40:42;7.73;;;4.63;;
21550;SDS011;10936;49.836;7.078;2023-02-15T07:43:09;6.73;;;4.77;;
21550;SDS011;10936;49.836;7.078;2023-02-15T07:45:35;7.23;;;4.70;;
21550;SDS011;10936;49.836;7.078;2023-02-15T07:48:01;8.83;;;5.03;;
21550;SDS011;10936;49.836;7.078;2023-02-15T07:50:27;7.40;;;4.80;;
21550;SDS011;10936;49.836;7.078;2023-02-15T07:52:53;7.47;;;4.90;;
21550;SDS011;10936;49.836;7.078;2023-02-15T07:55:18;7.53;;;4.97;;
21550;SDS011;10936;49.836;7.078;2023-02-15T07:57:45;7.93;;;5.17;;
21550;SDS011;10936;49.836;7.078;2023-02-15T08:00:15;8.53;;;4.67;;
21550;SDS011;10936;49.836;7.078;2023-02-15T08:02:47;6.60;;;4.37;;
21550;SDS011;10936;49.836;7.078;2023-02-15T08:05:13;6.23;;;4.20;;
21550;SDS011;10936;49.836;7.078;2023-02-15T08:07:39;5.90;;;4.27;;
21550;SDS011;10936;49.836;7.078;2023-02-15T08:10:05;6.97;;;4.50;;
21550;SDS011;10936;49.836;7.078;2023-02-15T08:12:31;9.53;;;4.70;;
21550;SDS011;10936;49.836;7.078;2023-02-15T08:14:56;7.13;;;4.00;;
21550;SDS011;10936;49.836;7.078;2023-02-15T08:17:22;8.13;;;4.30;;
21550;SDS011;10936;49.836;7.078;2023-02-15T08:19:48;12.63;;;4.57;;
21550;SDS011;10936;49.836;7.078;2023-02-15T08:22:14;10.60;;;4.57;;
21550;SDS011;10936;49.836;7.078;2023-02-15T08:24:40;6.13;;;3.90;;
21550;SDS011;10936;49.836;7.078;2023-02-15T08:27:07;6.00;;;3.90;;
21550;SDS011;10936;49.836;7.078;2023-02-15T08:29:34;7.53;;;4.43;;
21550;SDS011;10936;49.836;7.078;2023-02-15T08:32:03;6.13;;;4.00;;
21550;SDS011;10936;49.836;7.078;2023-02-15T08:34:31;8.33;;;4.60;;
21550;SDS011;10936;49.836;7.078;2023-02-15T08:36:59;10.90;;;4.13;;
21550;SDS011;10936;49.836;7.078;2023-02-15T08:39:25;7.70;;;4.17;;
21550;SDS011;10936;49.836;7.078;2023-02-15T08:41:51;7.67;;;4.13;;
21550;SDS011;10936;49.836;7.078;2023-02-15T08:44:17;6.90;;;4.33;;
21550;SDS011;10936;49.836;7.078;2023-02-15T08:46:44;5.60;;;3.87;;
21550;SDS011;10936;49.836;7.078;2023-02-15T08:49:11;7.57;;;4.60;;
21550;SDS011;10936;49.836;7.078;2023-02-15T08:51:40;6.68;;;4.60;;
21550;SDS011;10936;49.836;7.078;2023-02-15T08:54:07;6.38;;;3.70;;
21550;SDS011;10936;49.836;7.078;2023-02-15T08:56:38;6.10;;;4.45;;
21550;SDS011;10936;49.836;7.078;2023-02-15T08:59:05;5.78;;;3.55;;
21550;SDS011;10936;49.836;7.078;2023-02-15T09:01:33;8.25;;;4.13;;
21550;SDS011;10936;49.836;7.078;2023-02-15T09:04:00;6.55;;;4.50;;
21550;SDS011;10936;49.836;7.078;2023-02-15T09:06:29;8.63;;;4.30;;
21550;SDS011;10936;49.836;7.078;2023-02-15T09:08:55;7.88;;;3.83;;
21550;SDS011;10936;49.836;7.078;2023-02-15T09:11:22;7.30;;;4.47;;
21550;SDS011;10936;49.836;7.078;2023-02-15T09:13:54;5.65;;;3.83;;
21550;SDS011;10936;49.836;7.078;2023-02-15T09:16:30;6.15;;;4.20;;
21550;SDS011;10936;49.836;7.078;2023-02-15T09:18:57;8.25;;;4.30;;
21550;SDS011;10936;49.836;7.078;2023-02-15T09:21:23;5.93;;;4.07;;
21550;SDS011;10936;49.836;7.078;2023-02-15T09:23:51;7.75;;;4.18;;
21550;SDS011;10936;49.836;7.078;2023-02-15T09:26:21;7.20;;;3.90;;
21550;SDS011;10936;49.836;7.078;2023-02-15T09:28:51;5.53;;;4.20;;
21550;SDS011;10936;49.836;7.078;2023-02-15T09:31:19;6.70;;;3.78;;
21550;SDS011;10936;49.836;7.078;2023-02-15T09:33:46;5.63;;;3.97;;
21550;SDS011;10936;49.836;7.078;2023-02-15T09:36:17;8.57;;;4.25;;
21550;SDS011;10936;49.836;7.078;2023-02-15T09:38:43;4.55;;;3.65;;
21550;SDS011;10936;49.836;7.078;2023-02-15T09:41:14;6.10;;;3.55;;
21550;SDS011;10936;49.836;7.078;2023-02-15T09:43:42;5.65;;;3.75;;
21550;SDS011;10936;49.836;7.078;2023-02-15T10:00:03;5.70;;;3.60;;
21550;SDS011;10936;49.836;7.078;2023-02-15T10:05:31;4.45;;;3.75;;
21550;SDS011;10936;49.836;7.078;2023-02-15T10:10:37;6.18;;;4.05;;
21550;SDS011;10936;49.836;7.078;2023-02-15T10:14:10;5.45;;;3.83;;
21550;SDS011;10936;49.836;7.078;2023-02-15T10:16:48;5.68;;;3.78;;
21550;SDS011;10936;49.836;7.078;2023-02-15T10:19:53;6.03;;;4.18;;
21550;SDS011;10936;49.836;7.078;2023-02-15T10:22:52;6.10;;;3.97;;
21550;SDS011;10936;49.836;7.078;2023-02-15T10:27:49;8.25;;;4.25;;
21550;SDS011;10936;49.836;7.078;2023-02-15T10:30:15;5.78;;;4.15;;
21550;SDS011;10936;49.836;7.078;2023-02-15T10:33:02;6.97;;;4.22;;
21550;SDS011;10936;49.836;7.078;2023-02-15T10:35:49;4.75;;;3.67;;
21550;SDS011;10936;49.836;7.078;2023-02-15T10:38:22;6.00;;;4.00;;
21550;SDS011;10936;49.836;7.078;2023-02-15T10:41:04;5.45;;;3.75;;
21550;SDS011;10936;49.836;7.078;2023-02-15T10:50:11;5.15;;;3.90;;
21550;SDS011;10936;49.836;7.078;2023-02-15T10:55:06;4.18;;;3.28;;
21550;SDS011;10936;49.836;7.078;2023-02-15T10:57:44;4.85;;;3.58;;
21550;SDS011;10936;49.836;7.078;2023-02-15T11:00:23;3.88;;;3.42;;
21550;SDS011;10936;49.836;7.078;2023-02-15T11:08:29;5.20;;;3.53;;
21550;SDS011;10936;49.836;7.078;2023-02-15T11:11:06;5.57;;;3.75;;
21550;SDS011;10936;49.836;7.078;2023-02-15T11:13:42;5.05;;;3.60;;
21550;SDS011;10936;49.836;7.078;2023-02-15T11:16:16;4.25;;;3.65;;
21550;SDS011;10936;49.836;7.078;2023-02-15T11:18:50;3.83;;;3.35;;
21550;SDS011;10936;49.836;7.078;2023-02-15T11:21:21;4.90;;;3.42;;
21550;SDS011;10936;49.836;7.078;2023-02-15T11:24:07;3.78;;;3.38;;
21550;SDS011;10936;49.836;7.078;2023-02-15T11:26:39;5.22;;;3.45;;
21550;SDS011;10936;49.836;7.078;2023-02-15T11:29:18;5.38;;;3.53;;
21550;SDS011;10936;49.836;7.078;2023-02-15T11:31:50;5.40;;;4.00;;
21550;SDS011;10936;49.836;7.078;2023-02-15T11:34:36;4.45;;;3.50;;
21550;SDS011;10936;49.836;7.078;2023-02-15T11:37:07;4.03;;;3.00;;
21550;SDS011;10936;49.836;7.078;2023-02-15T11:39:36;3.75;;;3.20;;
21550;SDS011;10936;49.836;7.078;2023-02-15T11:42:04;2.80;;;2.50;;
21550;SDS011;10936;49.836;7.078;2023-02-15T11:44:59;4.35;;;3.30;;
21550;SDS011;10936;49.836;7.078;2023-02-15T11:47:31;5.57;;;3.17;;
21550;SDS011;10936;49.836;7.078;2023-02-15T11:49:57;4.90;;;3.45;;
21550;SDS011;10936;49.836;7.078;2023-02-15T11:52:25;4.45;;;3.28;;
21550;SDS011;10936;49.836;7.078;2023-02-15T11:54:51;4.32;;;3.45;;
21550;SDS011;10936;49.836;7.078;2023-02-15T11:57:25;3.90;;;3.10;;
21550;SDS011;10936;49.836;7.078;2023-02-15T12:00:10;5.05;;;3.60;;
21550;SDS011;10936;49.836;7.078;2023-02-15T12:02:38;3.85;;;3.00;;
21550;SDS011;10936;49.836;7.078;2023-02-15T12:05:18;3.70;;;3.15;;
21550;SDS011;10936;49.836;7.078;2023-02-15T12:07:50;4.35;;;3.53;;
21550;SDS011;10936;49.836;7.078;2023-02-15T12:10:24;4.03;;;3.22;;
21550;SDS011;10936;49.836;7.078;2023-02-15T12:15:39;4.45;;;3.05;;
21550;SDS011;10936;49.836;7.078;2023-02-15T12:18:17;3.78;;;3.10;;
21550;SDS011;10936;49.836;7.078;2023-02-15T12:21:11;4.80;;;3.60;;
21550;SDS011;10936;49.836;7.078;2023-02-15T12:23:51;4.90;;;3.28;;
21550;SDS011;10936;49.836;7.078;2023-02-15T12:26:28;4.43;;;3.33;;
21550;SDS011;10936;49.836;7.078;2023-02-15T12:28:59;4.22;;;3.20;;
21550;SDS011;10936;49.836;7.078;2023-02-15T12:31:33;4.65;;;3.20;;
21550;SDS011;10936;49.836;7.078;2023-02-15T12:34:03;3.58;;;2.95;;
21550;SDS011;10936;49.836;7.078;2023-02-15T12:36:47;4.47;;;3.30;;
21550;SDS011;10936;49.836;7.078;2023-02-15T12:39:22;3.72;;;2.85;;
21550;SDS011;10936;49.836;7.078;2023-02-15T12:44:33;4.72;;;3.30;;
21550;SDS011;10936;49.836;7.078;2023-02-15T12:47:17;4.45;;;3.00;;
21550;SDS011;10936;49.836;7.078;2023-02-15T12:49:44;6.85;;;3.35;;
21550;SDS011;10936;49.836;7.078;2023-02-15T12:52:29;3.47;;;2.80;;
21550;SDS011;10936;49.836;7.078;2023-02-15T12:54:54;5.25;;;2.72;;
21550;SDS011;10936;49.836;7.078;2023-02-15T12:57:34;3.95;;;2.85;;
21550;SDS011;10936;49.836;7.078;2023-02-15T13:00:04;4.35;;;3.05;;
21550;SDS011;10936;49.836;7.078;2023-02-15T13:02:51;4.05;;;3.35;;
21550;SDS011;10936;49.836;7.078;2023-02-15T13:10:39;3.65;;;2.80;;
21550;SDS011;10936;49.836;7.078;2023-02-15T13:13:18;3.97;;;3.33;;
21550;SDS011;10936;49.836;7.078;2023-02-15T13:15:48;3.70;;;2.97;;
21550;SDS011;10936;49.836;7.078;2023-02-15T13:18:16;4.43;;;3.17;;
21550;SDS011;10936;49.836;7.078;2023-02-15T13:20:54;4.47;;;2.90;;
21550;SDS011;10936;49.836;7.078;2023-02-15T13:23:27;3.45;;;2.78;;
21550;SDS011;10936;49.836;7.078;2023-02-15T13:25:54;5.65;;;2.63;;
21550;SDS011;10936;49.836;7.078;2023-02-15T13:28:24;4.80;;;3.03;;
21550;SDS011;10936;49.836;7.078;2023-02-15T13:30:59;4.22;;;2.72;;
21550;SDS011;10936;49.836;7.078;2023-02-15T13:33:32;4.90;;;3.25;;
21550;SDS011;10936;49.836;7.078;2023-02-15T13:36:21;3.25;;;2.95;;
21550;SDS011;10936;49.836;7.078;2023-02-15T13:41:46;5.88;;;3.33;;
21550;SDS011;10936;49.836;7.078;2023-02-15T13:52:29;5.10;;;3.15;;
21550;SDS011;10936;49.836;7.078;2023-02-15T14:00:20;4.70;;;3.05;;
21550;SDS011;10936;49.836;7.078;2023-02-15T14:03:07;5.53;;;3.22;;
21550;SDS011;10936;49.836;7.078;2023-02-15T14:05:57;3.80;;;2.97;;
21550;SDS011;10936;49.836;7.078;2023-02-15T14:11:15;3.65;;;2.78;;
21550;SDS011;10936;49.836;7.078;2023-02-15T14:16:34;4.03;;;2.72;;
21550;SDS011;10936;49.836;7.078;2023-02-15T14:30:13;3.70;;;2.97;;
21550;SDS011;10936;49.836;7.078;2023-02-15T14:32:42;5.07;;;3.65;;
21550;SDS011;10936;49.836;7.078;2023-02-15T14:35:13;4.25;;;3.22;;
21550;SDS011;10936;49.836;7.078;2023-02-15T14:37:49;3.85;;;2.85;;
21550;SDS011;10936;49.836;7.078;2023-02-15T14:49:14;5.90;;;3.30;;
21550;SDS011;10936;49.836;7.078;2023-02-15T14:56:41;6.50;;;3.25;;
21550;SDS011;10936;49.836;7.078;2023-02-15T15:01:36;6.30;;;3.58;;
21550;SDS011;10936;49.836;7.078;2023-02-15T15:04:05;4.05;;;3.25;;
21550;SDS011;10936;49.836;7.078;2023-02-15T15:06:57;6.30;;;3.50;;
21550;SDS011;10936;49.836;7.078;2023-02-15T15:09:33;4.05;;;3.10;;
21550;SDS011;10936;49.836;7.078;2023-02-15T15:14:45;4.45;;;3.13;;
21550;SDS011;10936;49.836;7.078;2023-02-15T15:17:12;4.25;;;3.38;;
21550;SDS011;10936;49.836;7.078;2023-02-15T15:20:04;5.95;;;3.35;;
21550;SDS011;10936;49.836;7.078;2023-02-15T15:22:39;4.55;;;3.60;;
21550;SDS011;10936;49.836;7.078;2023-02-15T15:27:58;4.88;;;3.30;;
21550;SDS011;10936;49.836;7.078;2023-02-15T15:32:56;5.20;;;3.45;;
21550;SDS011;10936;49.836;7.078;2023-02-15T15:47:06;4.00;;;3.15;;
21550;SDS011;10936;49.836;7.078;2023-02-15T15:49:37;4.03;;;3.10;;
21550;SDS011;10936;49.836;7.078;2023-02-15T15:52:13;4.70;;;3.60;;
21550;SDS011;10936;49.836;7.078;2023-02-15T15:54:41;5.57;;;3.47;;
21550;SDS011;10936;49.836;7.078;2023-02-15T15:57:14;4.80;;;3.08;;
21550;SDS011;10936;49.836;7.078;2023-02-15T15:59:53;3.80;;;3.33;;
21550;SDS011;10936;49.836;7.078;2023-02-15T16:02:19;4.38;;;3.10;;
21550;SDS011;10936;49.836;7.078;2023-02-15T16:04:45;3.47;;;2.75;;
21550;SDS011;10936;49.836;7.078;2023-02-15T16:12:18;4.45;;;3.08;;
21550;SDS011;10936;49.836;7.078;2023-02-15T16:14:45;4.25;;;3.15;;
21550;SDS011;10936;49.836;7.078;2023-02-15T16:17:20;4.30;;;3.55;;
21550;SDS011;10936;49.836;7.078;2023-02-15T16:19:50;4.63;;;3.10;;
21550;SDS011;10936;49.836;7.078;2023-02-15T16:22:19;4.82;;;3.38;;
21550;SDS011;10936;49.836;7.078;2023-02-15T16:25:03;3.85;;;3.05;;
21550;SDS011;10936;49.836;7.078;2023-02-15T16:27:46;4.13;;;2.97;;
21550;SDS011;10936;49.836;7.078;2023-02-15T16:30:31;4.53;;;3.17;;
21550;SDS011;10936;49.836;7.078;2023-02-15T16:33:09;4.15;;;3.05;;
21550;SDS011;10936;49.836;7.078;2023-02-15T16:35:35;4.05;;;3.33;;
21550;SDS011;10936;49.836;7.078;2023-02-15T16:38:03;5.10;;;3.40;;
21550;SDS011;10936;49.836;7.078;2023-02-15T16:40:35;4.38;;;3.35;;
21550;SDS011;10936;49.836;7.078;2023-02-15T16:43:26;4.47;;;3.28;;
21550;SDS011;10936;49.836;7.078;2023-02-15T16:46:02;3.93;;;2.90;;
21550;SDS011;10936;49.836;7.078;2023-02-15T16:48:30;5.07;;;3.08;;
21550;SDS011;10936;49.836;7.078;2023-02-15T16:50:58;7.20;;;3.37;;
21550;SDS011;10936;49.836;7.078;2023-02-15T16:53:25;6.00;;;3.37;;
21550;SDS011;10936;49.836;7.078;2023-02-15T16:55:54;7.25;;;4.13;;
21550;SDS011;10936;49.836;7.078;2023-02-15T16:58:25;7.40;;;4.33;;
21550;SDS011;10936;49.836;7.078;2023-02-15T17:00:55;7.78;;;4.38;;
21550;SDS011;10936;49.836;7.078;2023-02-15T17:03:23;6.03;;;3.60;;
21550;SDS011;10936;49.836;7.078;2023-02-15T17:05:51;6.00;;;3.67;;
21550;SDS011;10936;49.836;7.078;2023-02-15T17:08:26;4.80;;;3.60;;
21550;SDS011;10936;49.836;7.078;2023-02-15T17:13:25;4.47;;;3.50;;
21550;SDS011;10936;49.836;7.078;2023-02-15T17:18:23;7.17;;;3.50;;
21550;SDS011;10936;49.836;7.078;2023-02-15T17:20:50;6.83;;;3.67;;
21550;SDS011;10936;49.836;7.078;2023-02-15T17:25:51;7.53;;;3.93;;
21550;SDS011;10936;49.836;7.078;2023-02-15T17:28:19;6.67;;;3.93;;
21550;SDS011;10936;49.836;7.078;2023-02-15T17:30:53;7.93;;;4.10;;
21550;SDS011;10936;49.836;7.078;2023-02-15T17:33:34;7.00;;;3.73;;
21550;SDS011;10936;49.836;7.078;2023-02-15T17:41:25;6.18;;;3.45;;
21550;SDS011;10936;49.836;7.078;2023-02-15T17:43:52;6.40;;;4.07;;
21550;SDS011;10936;49.836;7.078;2023-02-15T17:46:18;4.67;;;3.97;;
21550;SDS011;10936;49.836;7.078;2023-02-15T17:48:50;7.63;;;4.17;;
21550;SDS011;10936;49.836;7.078;2023-02-15T17:51:18;7.47;;;4.20;;
21550;SDS011;10936;49.836;7.078;2023-02-15T17:53:45;4.97;;;3.20;;
21550;SDS011;10936;49.836;7.078;2023-02-15T17:56:30;5.70;;;4.03;;
21550;SDS011;10936;49.836;7.078;2023-02-15T17:58:56;5.40;;;3.33;;
21550;SDS011;10936;49.836;7.078;2023-02-15T18:01:21;4.43;;;3.43;;
21550;SDS011;10936;49.836;7.078;2023-02-15T18:04:13;4.50;;;3.37;;
21550;SDS011;10936;49.836;7.078;2023-02-15T18:06:58;7.20;;;4.03;;
21550;SDS011;10936;49.836;7.078;2023-02-15T18:09:43;6.00;;;3.78;;
21550;SDS011;10936;49.836;7.078;2023-02-15T18:12:29;6.27;;;4.13;;
21550;SDS011;10936;49.836;7.078;2023-02-15T18:14:56;5.50;;;4.07;;
21550;SDS011;10936;49.836;7.078;2023-02-15T18:17:31;6.60;;;4.33;;
21550;SDS011;10936;49.836;7.078;2023-02-15T18:19:58;6.07;;;4.20;;
21550;SDS011;10936;49.836;7.078;2023-02-15T18:22:29;8.13;;;4.07;;
21550;SDS011;10936;49.836;7.078;2023-02-15T18:24:55;6.90;;;4.17;;
21550;SDS011;10936;49.836;7.078;2023-02-15T18:27:21;4.90;;;3.80;;
21550;SDS011;10936;49.836;7.078;2023-02-15T18:29:47;7.17;;;4.63;;
21550;SDS011;10936;49.836;7.078;2023-02-15T18:32:25;5.53;;;3.80;;
21550;SDS011;10936;49.836;7.078;2023-02-15T18:34:59;6.57;;;3.70;;
21550;SDS011;10936;49.836;7.078;2023-02-15T18:37:28;5.77;;;4.10;;
21550;SDS011;10936;49.836;7.078;2023-02-15T18:39:57;6.70;;;4.33;;
21550;SDS011;10936;49.836;7.078;2023-02-15T18:45:00;5.00;;;3.70;;
21550;SDS011;10936;49.836;7.078;2023-02-15T18:47:34;5.23;;;3.83;;
21550;SDS011;10936;49.836;7.078;2023-02-15T18:50:00;7.33;;;4.43;;
21550;SDS011;10936;49.836;7.078;2023-02-15T18:52:26;6.33;;;4.00;;
21550;SDS011;10936;49.836;7.078;2023-02-15T18:54:58;5.60;;;4.10;;
21550;SDS011;10936;49.836;7.078;2023-02-15T18:57:26;6.00;;;3.67;;
21550;SDS011;10936;49.836;7.078;2023-02-15T18:59:53;6.77;;;5.03;;
21550;SDS011;10936;49.836;7.078;2023-02-15T19:02:18;10.30;;;5.37;;
21550;SDS011;10936;49.836;7.078;2023-02-15T19:04:44;6.60;;;4.83;;
21550;SDS011;10936;49.836;7.078;2023-02-15T19:07:31;5.77;;;4.10;;
21550;SDS011;10936;49.836;7.078;2023-02-15T19:09:58;6.87;;;3.90;;
21550;SDS011;10936;49.836;7.078;2023-02-15T19:12:26;6.03;;;3.93;;
21550;SDS011;10936;49.836;7.078;2023-02-15T19:14:52;4.47;;;3.77;;
21550;SDS011;10936;49.836;7.078;2023-02-15T19:17:20;3.90;;;3.33;;
21550;SDS011;10936;49.836;7.078;2023-02-15T19:19:46;6.10;;;3.90;;
21550;SDS011;10936;49.836;7.078;2023-02-15T19:22:17;6.57;;;3.70;;
21550;SDS011;10936;49.836;7.078;2023-02-15T19:24:50;4.83;;;3.57;;
21550;SDS011;10936;49.836;7.078;2023-02-15T19:27:20;5.27;;;3.77;;
21550;SDS011;10936;49.836;7.078;2023-02-15T19:29:59;4.47;;;3.43;;
21550;SDS011;10936;49.836;7.078;2023-02-15T19:32:29;5.67;;;3.80;;
21550;SDS011;10936;49.836;7.078;2023-02-15T19:34:55;7.00;;;3.30;;
21550;SDS011;10936;49.836;7.078;2023-02-15T19:37:23;5.07;;;3.63;;
21550;SDS011;10936;49.836;7.078;2023-02-15T19:39:52;4.83;;;3.23;;
21550;SDS011;10936;49.836;7.078;2023-02-15T19:42:19;5.23;;;3.87;;
21550;SDS011;10936;49.836;7.078;2023-02-15T19:44:47;5.30;;;3.50;;
21550;SDS011;10936;49.836;7.078;2023-02-15T19:47:14;5.37;;;3.67;;
21550;SDS011;10936;49.836;7.078;2023-02-15T19:49:40;4.30;;;3.27;;
21550;SDS011;10936;49.836;7.078;2023-02-15T19:52:11;4.50;;;3.63;;
21550;SDS011;10936;49.836;7.078;2023-02-15T19:54:43;3.87;;;3.07;;
21550;SDS011;10936;49.836;7.078;2023-02-15T19:57:12;4.80;;;3.40;;
21550;SDS011;10936;49.836;7.078;2023-02-15T19:59:38;5.13;;;3.60;;
21550;SDS011;10936;49.836;7.078;2023-02-15T20:02:05;4.50;;;3.70;;
21550;SDS011;10936;49.836;7.078;2023-02-15T20:04:31;5.80;;;3.80;;
21550;SDS011;10936;49.836;7.078;2023-02-15T20:06:59;4.03;;;3.50;;
21550;SDS011;10936;49.836;7.078;2023-02-15T20:09:30;5.77;;;3.80;;
21550;SDS011;10936;49.836;7.078;2023-02-15T20:11:58;6.07;;;4.07;;
21550;SDS011;10936;49.836;7.078;2023-02-15T20:14:23;5.87;;;4.03;;
21550;SDS011;10936;49.836;7.078;2023-02-15T20:16:49;4.60;;;3.60;;
21550;SDS011;10936;49.836;7.078;2023-02-15T20:19:15;6.17;;;3.63;;
21550;SDS011;10936;49.836;7.078;2023-02-15T20:21:41;5.40;;;4.20;;
21550;SDS011;10936;49.836;7.078;2023-02-15T20:24:15;5.83;;;3.87;;
21550;SDS011;10936;49.836;7.078;2023-02-15T20:26:43;5.87;;;3.87;;
21550;SDS011;10936;49.836;7.078;2023-02-15T20:29:12;5.87;;;3.90;;
21550;SDS011;10936;49.836;7.078;2023-02-15T20:31:39;5.53;;;4.13;;
21550;SDS011;10936;49.836;7.078;2023-02-15T20:34:05;5.90;;;4.00;;
21550;SDS011;10936;49.836;7.078;2023-02-15T20:36:31;4.73;;;3.20;;
21550;SDS011;10936;49.836;7.078;2023-02-15T20:38:57;4.60;;;3.80;;
21550;SDS011;10936;49.836;7.078;2023-02-15T20:41:26;5.10;;;3.43;;
21550;SDS011;10936;49.836;7.078;2023-02-15T20:46:49;5.63;;;3.97;;
21550;SDS011;10936;49.836;7.078;2023-02-15T20:49:17;4.57;;;3.57;;
21550;SDS011;10936;49.836;7.078;2023-02-15T20:51:43;5.40;;;3.70;;
21550;SDS011;10936;49.836;7.078;2023-02-15T20:54:15;5.83;;;3.83;;
21550;SDS011;10936;49.836;7.078;2023-02-15T20:56:42;5.63;;;3.90;;
21550;SDS011;10936;49.836;7.078;2023-02-15T20:59:18;4.03;;;3.47;;
21550;SDS011;10936;49.836;7.078;2023-02-15T21:01:47;7.23;;;3.90;;
21550;SDS011;10936;49.836;7.078;2023-02-15T21:04:17;4.40;;;3.33;;
21550;SDS011;10936;49.836;7.078;2023-02-15T21:06:52;6.43;;;4.13;;
21550;SDS011;10936;49.836;7.078;2023-02-15T21:09:18;4.97;;;3.83;;
21550;SDS011;10936;49.836;7.078;2023-02-15T21:11:44;6.87;;;3.27;;
21550;SDS011;10936;49.836;7.078;2023-02-15T21:14:17;5.40;;;3.40;;
21550;SDS011;10936;49.836;7.078;2023-02-15T21:16:45;4.80;;;3.43;;
21550;SDS011;10936;49.836;7.078;2023-02-15T21:19:12;5.37;;;3.90;;
21550;SDS011;10936;49.836;7.078;2023-02-15T21:21:39;5.17;;;3.70;;
21550;SDS011;10936;49.836;7.078;2023-02-15T21:24:06;4.63;;;3.90;;
21550;SDS011;10936;49.836;7.078;2023-02-15T21:26:36;6.90;;;4.00;;
21550;SDS011;10936;49.836;7.078;2023-02-15T21:29:08;5.80;;;3.80;;
21550;SDS011;10936;49.836;7.078;2023-02-15T21:31:43;4.17;;;3.57;;
21550;SDS011;10936;49.836;7.078;2023-02-15T21:34:09;6.87;;;4.20;;
21550;SDS011;10936;49.836;7.078;2023-02-15T21:36:34;5.97;;;4.10;;
21550;SDS011;10936;49.836;7.078;2023-02-15T21:39:00;5.63;;;4.30;;
21550;SDS011;10936;49.836;7.078;2023-02-15T21:41:26;6.17;;;3.90;;
21550;SDS011;10936;49.836;7.078;2023-02-15T21:44:14;6.10;;;3.77;;
21550;SDS011;10936;49.836;7.078;2023-02-15T21:47:04;6.03;;;3.73;;
21550;SDS011;10936;49.836;7.078;2023-02-15T21:49:49;6.47;;;4.10;;
21550;SDS011;10936;49.836;7.078;2023-02-15T21:52:15;4.90;;;3.73;;
21550;SDS011;10936;49.836;7.078;2023-02-15T21:54:45;6.47;;;3.97;;
21550;SDS011;10936;49.836;7.078;2023-02-15T21:57:11;6.30;;;4.13;;
21550;SDS011;10936;49.836;7.078;2023-02-15T21:59:38;5.90;;;3.97;;
21550;SDS011;10936;49.836;7.078;2023-02-15T22:02:09;5.33;;;3.67;;
21550;SDS011;10936;49.836;7.078;2023-02-15T22:04:51;5.13;;;3.87;;
21550;SDS011;10936;49.836;7.078;2023-02-15T22:07:16;5.23;;;3.73;;
21550;SDS011;10936;49.836;7.078;2023-02-15T22:09:45;5.00;;;4.00;;
21550;SDS011;10936;49.836;7.078;2023-02-15T22:12:14;6.90;;;4.07;;
21550;SDS011;10936;49.836;7.078;2023-02-15T22:14:42;5.27;;;3.73;;
21550;SDS011;10936;49.836;7.078;2023-02-15T22:17:14;6.07;;;3.97;;
21550;SDS011;10936;49.836;7.078;2023-02-15T22:19:48;5.47;;;3.80;;
21550;SDS011;10936;49.836;7.078;2023-02-15T22:22:15;5.70;;;4.50;;
21550;SDS011;10936;49.836;7.078;2023-02-15T22:24:41;6.10;;;4.50;;
21550;SDS011;10936;49.836;7.078;2023-02-15T22:27:20;5.00;;;4.20;;
21550;SDS011;10936;49.836;7.078;2023-02-15T22:29:52;6.30;;;4.13;;
